Time;durP1;ratioP1;P1;durP2;ratioP2;P2;SDS_P1;SDS_P2;PMS_P1;PMS_P2;Temp;Humidity;BMP_temperature;BMP_pressure;BME280_temperature;BME280_humidity;BME280_pressure;Samples;Min_cycle;Max_cycle;Signal;HPM_P1;HPM_P2
2022/04/26 03:36:11;;;;;;;5.57;3.50;;;8.10;99.90;;;;;;5092157;28;20035;-85
2022/04/26 03:38:38;;;;;;;4.90;3.78;;;8.10;99.90;;;;;;5086450;28;20024;-85
2022/04/26 03:41:04;;;;;;;5.82;4.10;;;8.10;99.90;;;;;;5093080;28;20027;-85
2022/04/26 03:43:30;;;;;;;5.10;4.00;;;8.10;99.90;;;;;;5091515;28;20052;-85
2022/04/26 03:45:57;;;;;;;5.57;3.90;;;8.10;99.90;;;;;;5084709;28;20059;-85
2022/04/26 03:48:22;;;;;;;5.85;4.20;;;8.10;99.90;;;;;;5067026;28;20020;-84
2022/04/26 03:50:48;;;;;;;5.43;3.95;;;8.00;99.90;;;;;;5090473;28;20030;-85
2022/04/26 03:53:14;;;;;;;4.65;3.55;;;7.80;99.90;;;;;;5083649;28;20100;-85
2022/04/26 03:55:40;;;;;;;4.50;4.10;;;7.80;99.90;;;;;;5091446;28;20052;-87
2022/04/26 03:58:06;;;;;;;5.55;4.10;;;7.80;99.90;;;;;;5074754;28;20079;-85
2022/04/26 04:00:32;;;;;;;4.70;3.88;;;7.80;99.90;;;;;;5058412;28;20041;-84
2022/04/26 04:02:58;;;;;;;8.48;4.88;;;7.70;99.90;;;;;;5073364;28;20029;-84
2022/04/26 04:05:23;;;;;;;5.63;4.20;;;7.70;99.90;;;;;;5093167;28;20055;-84
2022/04/26 04:07:49;;;;;;;5.50;3.78;;;7.70;99.90;;;;;;5071806;28;20119;-85
2022/04/26 04:10:15;;;;;;;5.15;3.58;;;7.70;99.90;;;;;;5071869;28;20565;-85
2022/04/26 04:12:41;;;;;;;4.78;3.75;;;7.70;99.90;;;;;;5077782;28;20020;-85
2022/04/26 04:15:07;;;;;;;6.45;4.43;;;7.70;99.90;;;;;;5088540;28;20024;-84
2022/04/26 04:17:33;;;;;;;5.82;4.47;;;7.60;99.90;;;;;;5091989;28;20111;-85
2022/04/26 04:19:58;;;;;;;6.22;3.90;;;7.60;99.90;;;;;;5092471;28;20103;-83
2022/04/26 04:22:24;;;;;;;4.05;3.60;;;7.50;99.90;;;;;;5089661;28;20028;-84
2022/04/26 04:24:50;;;;;;;4.40;3.83;;;7.50;99.90;;;;;;5081251;28;20035;-84
2022/04/26 04:27:16;;;;;;;7.20;4.10;;;7.50;99.90;;;;;;5088676;28;20495;-85
2022/04/26 04:29:41;;;;;;;5.45;3.45;;;7.50;99.90;;;;;;5090963;28;20099;-84
2022/04/26 04:32:07;;;;;;;7.35;4.40;;;7.40;99.90;;;;;;5078782;28;20487;-85
2022/04/26 04:34:33;;;;;;;6.10;4.13;;;7.50;99.90;;;;;;5072110;28;20031;-84
2022/04/26 04:36:58;;;;;;;5.70;3.92;;;7.40;99.90;;;;;;5077211;28;20028;-84
2022/04/26 04:39:24;;;;;;;4.45;3.35;;;7.50;99.90;;;;;;5083356;28;20025;-84
2022/04/26 04:41:51;;;;;;;6.22;3.85;;;7.40;99.90;;;;;;5072885;28;20039;-84
2022/04/26 04:44:17;;;;;;;7.65;4.25;;;7.40;99.90;;;;;;5087068;28;20016;-84
2022/04/26 04:46:44;;;;;;;5.97;4.13;;;7.30;99.90;;;;;;5073673;28;20024;-84
2022/04/26 04:49:10;;;;;;;4.10;3.70;;;7.20;99.90;;;;;;5072020;28;20521;-84
2022/04/26 04:51:36;;;;;;;4.82;3.58;;;7.20;99.90;;;;;;5073199;28;20025;-83
2022/04/26 04:54:02;;;;;;;6.05;3.58;;;7.10;99.90;;;;;;5087521;28;20020;-84
2022/04/26 04:56:28;;;;;;;4.18;3.78;;;7.10;99.90;;;;;;5091375;28;20068;-84
2022/04/26 04:58:54;;;;;;;5.72;4.35;;;7.10;99.90;;;;;;5089014;28;20044;-84
2022/04/26 05:01:21;;;;;;;4.95;3.97;;;7.10;99.90;;;;;;5089251;28;20028;-84
2022/04/26 05:03:46;;;;;;;9.98;4.63;;;7.20;99.90;;;;;;5089841;28;20028;-84
2022/04/26 05:06:16;;;;;;;4.32;3.33;;;7.20;99.90;;;;;;5089506;28;20047;-84
2022/04/26 05:08:43;;;;;;;4.90;3.80;;;7.10;99.90;;;;;;5089915;28;20032;-83
2022/04/26 05:11:09;;;;;;;5.50;3.80;;;7.10;99.90;;;;;;5091881;28;20028;-84
2022/04/26 05:13:35;;;;;;;4.68;3.47;;;7.10;99.90;;;;;;5064909;28;20190;-84
2022/04/26 05:16:01;;;;;;;6.18;4.47;;;7.10;99.90;;;;;;5069426;28;20507;-84
2022/04/26 05:18:27;;;;;;;4.22;3.53;;;7.10;99.90;;;;;;5084782;28;20030;-84
2022/04/26 05:20:53;;;;;;;5.05;3.85;;;7.20;99.90;;;;;;5087022;28;26549;-84
2022/04/26 05:26:03;;;;;;;5.20;3.60;;;7.20;99.90;;;;;;5076842;28;20505;-83
2022/04/26 05:28:29;;;;;;;4.15;3.35;;;7.30;99.90;;;;;;5085511;28;20059;-84
2022/04/26 05:30:55;;;;;;;5.20;3.40;;;7.40;99.90;;;;;;5089001;28;20048;-83
2022/04/26 05:33:27;;;;;;;5.50;3.58;;;7.50;99.90;;;;;;5088301;28;20016;-84
2022/04/26 05:35:53;;;;;;;4.10;3.40;;;7.50;99.90;;;;;;5089228;28;20146;-84
2022/04/26 05:38:19;;;;;;;3.60;3.17;;;7.40;99.90;;;;;;5086729;28;20099;-84
2022/04/26 05:40:45;;;;;;;5.55;3.45;;;7.40;99.90;;;;;;5074782;28;20501;-84
2022/04/26 05:43:11;;;;;;;4.07;3.45;;;7.50;99.90;;;;;;5084255;28;20560;-84
2022/04/26 05:45:37;;;;;;;4.57;3.35;;;7.60;99.90;;;;;;5087085;28;20107;-84
2022/04/26 05:48:04;;;;;;;4.60;3.20;;;7.50;99.90;;;;;;5089283;28;20146;-83
2022/04/26 05:50:30;;;;;;;4.57;3.65;;;7.60;99.90;;;;;;5089552;28;20020;-84
2022/04/26 05:52:55;;;;;;;6.85;4.43;;;7.70;99.90;;;;;;5087836;28;20031;-83
2022/04/26 05:55:21;;;;;;;5.15;3.88;;;7.80;99.90;;;;;;5088616;28;20104;-83
2022/04/26 05:57:47;;;;;;;7.30;4.60;;;7.80;99.90;;;;;;5088612;28;20032;-84
2022/04/26 06:00:14;;;;;;;6.07;4.70;;;7.70;99.90;;;;;;5089392;28;20055;-83
2022/04/26 06:02:40;;;;;;;6.43;4.53;;;7.70;99.90;;;;;;5073326;28;20025;-84
2022/04/26 06:05:07;;;;;;;6.05;4.38;;;8.00;99.90;;;;;;5077713;28;20021;-83
2022/04/26 06:07:32;;;;;;;6.32;4.60;;;8.20;99.90;;;;;;5086270;28;20040;-84
2022/04/26 06:09:58;;;;;;;7.93;4.38;;;8.40;99.90;;;;;;5089132;28;20573;-83
2022/04/26 06:12:26;;;;;;;6.18;4.32;;;8.60;99.90;;;;;;5088546;28;20524;-84
2022/04/26 06:14:56;;;;;;;7.40;4.65;;;9.20;99.90;;;;;;5088955;28;20012;-84
2022/04/26 06:17:22;;;;;;;7.75;4.88;;;12.60;99.90;;;;;;5075151;28;20052;-84
2022/04/26 06:19:48;;;;;;;6.05;4.10;;;15.30;99.90;;;;;;5064692;28;20025;-83
2022/04/26 06:22:14;;;;;;;8.20;5.05;;;16.00;99.90;;;;;;5077051;28;20099;-83
2022/04/26 06:24:40;;;;;;;5.82;4.25;;;16.50;98.10;;;;;;5078342;28;20099;-83
2022/04/26 06:27:06;;;;;;;5.50;4.15;;;15.60;99.70;;;;;;5089277;28;20103;-83
2022/04/26 06:29:32;;;;;;;5.97;4.65;;;16.50;98.90;;;;;;5089397;28;20028;-83
2022/04/26 06:31:58;;;;;;;7.55;5.07;;;17.50;97.30;;;;;;5088774;28;20024;-84
2022/04/26 06:34:24;;;;;;;6.50;4.85;;;17.50;97.30;;;;;;5086033;28;20082;-83
2022/04/26 06:36:50;;;;;;;7.82;4.32;;;17.60;97.20;;;;;;5088646;28;20056;-84
2022/04/26 06:39:16;;;;;;;5.50;4.47;;;17.80;97.30;;;;;;5086904;28;20525;-84
2022/04/26 06:41:42;;;;;;;7.32;4.97;;;17.50;97.90;;;;;;5071817;28;20060;-83
2022/04/26 06:44:08;;;;;;;7.25;4.70;;;17.40;97.80;;;;;;5090190;28;20095;-83
2022/04/26 06:46:36;;;;;;;5.88;5.10;;;16.40;99.00;;;;;;5088464;28;20116;-84
2022/04/26 06:49:03;;;;;;;8.13;4.88;;;15.80;99.90;;;;;;5073957;28;20060;-83
2022/04/26 06:51:35;;;;;;;5.82;5.05;;;15.20;99.90;;;;;;5065091;28;20035;-84
2022/04/26 06:54:01;;;;;;;6.20;5.10;;;14.80;99.90;;;;;;5088235;28;20051;-86
2022/04/26 06:56:27;;;;;;;8.38;4.93;;;15.00;99.90;;;;;;5090733;28;20043;-84
2022/04/26 06:58:52;;;;;;;7.38;5.25;;;15.10;99.90;;;;;;5082045;28;20032;-84
2022/04/26 07:01:18;;;;;;;7.20;5.47;;;15.30;99.90;;;;;;5088305;28;20039;-84
2022/04/26 07:03:44;;;;;;;6.40;5.00;;;15.00;99.90;;;;;;5088399;28;20016;-84
2022/04/26 07:06:09;;;;;;;7.75;5.38;;;14.70;99.90;;;;;;5085111;28;20028;-84
2022/04/26 07:08:35;;;;;;;8.80;5.28;;;14.70;99.90;;;;;;5087823;28;20024;-84
2022/04/26 07:11:01;;;;;;;7.22;5.82;;;14.90;99.90;;;;;;5088509;28;20471;-84
2022/04/26 07:13:27;;;;;;;7.82;5.55;;;15.00;99.90;;;;;;5079305;28;20035;-85
2022/04/26 07:15:53;;;;;;;7.40;6.38;;;15.00;99.90;;;;;;5073008;28;20028;-85
2022/04/26 07:18:18;;;;;;;8.50;5.93;;;15.70;99.90;;;;;;5084926;28;20070;-85
2022/04/26 07:20:44;;;;;;;6.95;5.15;;;15.60;99.90;;;;;;5078081;28;20144;-87
2022/04/26 07:23:12;;;;;;;7.18;5.75;;;16.10;99.90;;;;;;5075023;28;20482;-86
2022/04/26 07:25:38;;;;;;;8.30;5.93;;;15.40;99.90;;;;;;5080614;28;20024;-86
2022/04/26 07:28:04;;;;;;;6.88;6.15;;;15.80;99.90;;;;;;5086639;28;20032;-85
2022/04/26 07:30:36;;;;;;;10.10;6.45;;;16.10;99.90;;;;;;5082324;28;20020;-87
2022/04/26 07:35:50;;;;;;;7.35;5.90;;;17.40;99.90;;;;;;5088315;28;19934;-86
2022/04/26 07:38:16;;;;;;;7.65;5.72;;;17.20;99.90;;;;;;5091952;28;20028;-86
2022/04/26 07:40:42;;;;;;;7.50;6.22;;;17.00;99.90;;;;;;5088984;28;20035;-87
2022/04/26 07:43:08;;;;;;;8.38;5.68;;;16.60;99.90;;;;;;5074929;28;20032;-86
2022/04/26 07:45:39;;;;;;;7.70;6.35;;;17.00;99.90;;;;;;5076645;28;20065;-85
2022/04/26 07:48:06;;;;;;;7.80;6.38;;;17.40;99.90;;;;;;5059808;28;20081;-85
2022/04/26 07:50:33;;;;;;;11.77;6.85;;;17.80;99.90;;;;;;5074975;28;20020;-85
2022/04/26 07:53:00;;;;;;;9.55;6.35;;;18.30;99.90;;;;;;5089921;28;20616;-85
2022/04/26 07:55:26;;;;;;;8.73;5.90;;;17.40;99.90;;;;;;5074791;28;20021;-85
2022/04/26 07:57:52;;;;;;;7.00;6.10;;;17.80;99.90;;;;;;5065867;28;20112;-85
2022/04/26 08:00:17;;;;;;;12.05;7.47;;;18.30;99.40;;;;;;5064313;28;20525;-85
2022/04/26 08:02:43;;;;;;;8.57;7.00;;;17.40;99.90;;;;;;5066115;28;20029;-86
2022/04/26 08:05:09;;;;;;;10.10;7.07;;;17.90;99.70;;;;;;5069567;28;20525;-87
2022/04/26 08:07:39;;;;;;;8.18;5.70;;;18.20;99.70;;;;;;5084313;28;20123;-86
2022/04/26 08:10:09;;;;;;;10.13;6.90;;;18.20;99.30;;;;;;5085244;28;20024;-92
2022/04/26 08:12:35;;;;;;;7.10;6.10;;;19.00;99.50;;;;;;5087557;28;20023;-88
2022/04/26 08:15:01;;;;;;;6.90;5.88;;;19.50;98.40;;;;;;5079238;28;20020;-87
2022/04/26 08:17:27;;;;;;;7.47;6.07;;;19.20;97.80;;;;;;5092282;28;20103;-87
2022/04/26 08:19:52;;;;;;;8.02;5.43;;;18.90;98.70;;;;;;5075439;28;20036;-87
2022/04/26 08:22:18;;;;;;;7.55;5.90;;;19.20;97.90;;;;;;5074370;28;20028;-88
2022/04/26 08:27:33;;;;;;;6.32;5.60;;;19.60;97.70;;;;;;5083516;28;20119;-86
2022/04/26 08:30:02;;;;;;;8.10;5.50;;;19.90;96.70;;;;;;5071815;28;20012;-87
2022/04/26 08:32:47;;;;;;;7.07;5.32;;;20.30;96.40;;;;;;5082999;28;20564;-85
2022/04/26 08:35:15;;;;;;;8.30;5.53;;;20.30;96.00;;;;;;5064903;28;20100;-86
2022/04/26 08:37:43;;;;;;;11.40;5.18;;;20.40;96.60;;;;;;5081884;28;20036;-85
2022/04/26 08:40:10;;;;;;;32.28;5.63;;;20.60;96.00;;;;;;5088436;28;20501;-88
2022/04/26 08:42:36;;;;;;;9.02;6.60;;;20.60;95.00;;;;;;5087828;28;20035;-87
2022/04/26 08:45:05;;;;;;;7.07;4.80;;;20.70;95.00;;;;;;5077119;28;26627;-86
2022/04/26 08:53:01;;;;;;;7.95;5.07;;;21.00;96.00;;;;;;5067952;28;20055;-88
2022/04/26 08:55:27;;;;;;;9.52;5.25;;;21.80;95.10;;;;;;5084239;28;20043;-89
2022/04/26 08:57:52;;;;;;;8.48;5.30;;;21.90;94.40;;;;;;5088258;28;20121;-87
2022/04/26 09:00:18;;;;;;;7.85;5.80;;;22.20;93.70;;;;;;5087457;28;20074;-88
2022/04/26 09:03:02;;;;;;;6.55;5.88;;;21.90;93.30;;;;;;5075479;28;20112;-86
2022/04/26 09:05:29;;;;;;;7.97;5.57;;;21.80;92.90;;;;;;5072764;28;20571;-88
2022/04/26 09:07:55;;;;;;;7.30;5.40;;;21.70;92.50;;;;;;5083830;28;20047;-88
2022/04/26 09:10:21;;;;;;;6.78;5.57;;;21.70;92.70;;;;;;5088782;28;20016;-87
2022/04/26 09:13:09;;;;;;;6.00;4.32;;;21.40;93.10;;;;;;5088126;28;20027;-86
2022/04/26 09:15:50;;;;;;;5.60;3.45;;;21.50;92.20;;;;;;5074998;28;20020;-88
2022/04/26 09:18:20;;;;;;;4.75;3.70;;;21.90;91.60;;;;;;5087654;28;20028;-87
2022/04/26 09:20:48;;;;;;;6.03;3.63;;;22.00;91.90;;;;;;5088094;28;20062;-88
2022/04/26 09:23:19;;;;;;;6.25;4.40;;;22.30;91.40;;;;;;5076401;28;20032;-87
2022/04/26 09:25:46;;;;;;;6.35;3.85;;;22.20;91.50;;;;;;5063849;28;20551;-87
2022/04/26 09:28:20;;;;;;;4.90;3.85;;;21.80;92.50;;;;;;5068375;28;20127;-88
2022/04/26 09:30:47;;;;;;;6.40;3.95;;;21.90;90.40;;;;;;5064664;28;20028;-86
2022/04/26 09:33:36;;;;;;;6.60;3.58;;;21.60;90.50;;;;;;5065209;28;20042;-87
2022/04/26 09:36:09;;;;;;;5.05;3.28;;;21.70;90.80;;;;;;5061258;28;20027;-87
2022/04/26 09:38:36;;;;;;;6.00;3.35;;;22.20;90.70;;;;;;5077181;28;20032;-86
2022/04/26 09:41:04;;;;;;;5.60;3.10;;;22.10;89.00;;;;;;5068836;28;20024;-88
2022/04/26 09:43:31;;;;;;;6.63;3.63;;;21.90;88.80;;;;;;5073101;28;20036;-84
2022/04/26 09:45:58;;;;;;;3.42;3.05;;;22.10;87.60;;;;;;5071904;28;20112;-86
2022/04/26 09:48:36;;;;;;;6.82;3.28;;;22.20;85.70;;;;;;5062445;28;20028;-87
2022/04/26 09:51:08;;;;;;;3.80;2.58;;;22.60;88.20;;;;;;5067207;28;20020;-86
2022/04/26 09:53:35;;;;;;;3.78;2.63;;;22.70;91.00;;;;;;5073625;28;20070;-87
2022/04/26 09:56:03;;;;;;;5.63;2.88;;;22.20;88.80;;;;;;5066167;28;20038;-87
2022/04/26 09:58:30;;;;;;;5.10;3.15;;;22.40;88.40;;;;;;5075956;28;20032;-88
2022/04/26 10:00:58;;;;;;;6.38;3.03;;;22.90;90.00;;;;;;5072347;28;20024;-87
2022/04/26 10:03:25;;;;;;;5.40;2.72;;;22.40;85.20;;;;;;5053809;28;20035;-86
2022/04/26 10:06:00;;;;;;;3.58;3.05;;;22.00;88.60;;;;;;5061162;28;20028;-86
2022/04/26 10:08:31;;;;;;;5.30;3.10;;;22.30;88.40;;;;;;5053145;28;20057;-86
2022/04/26 10:10:58;;;;;;;4.13;2.60;;;22.50;87.60;;;;;;5077141;28;20067;-85
2022/04/26 10:13:39;;;;;;;3.83;3.03;;;21.90;87.90;;;;;;5063448;28;20549;-85
2022/04/26 10:16:17;;;;;;;5.35;2.78;;;22.30;86.40;;;;;;5072319;28;20034;-87
2022/04/26 10:18:44;;;;;;;3.25;2.95;;;22.20;87.80;;;;;;5074876;28;20036;-86
2022/04/26 10:21:12;;;;;;;4.03;2.83;;;22.20;89.80;;;;;;5059089;28;20028;-85
2022/04/26 10:23:50;;;;;;;3.17;2.60;;;22.50;86.10;;;;;;5072506;28;20035;-84
2022/04/26 10:26:22;;;;;;;3.40;2.97;;;22.60;85.70;;;;;;5066554;28;20035;-85
2022/04/26 10:28:59;;;;;;;4.50;2.92;;;22.70;86.00;;;;;;5074596;28;20025;-85
2022/04/26 10:31:46;;;;;;;4.47;2.78;;;22.70;85.70;;;;;;5063756;28;20032;-85
2022/04/26 10:34:20;;;;;;;2.80;2.50;;;22.70;87.30;;;;;;5063503;28;20071;-84
2022/04/26 10:37:08;;;;;;;3.38;2.33;;;23.00;87.60;;;;;;5071116;28;20028;-84
2022/04/26 10:39:33;;;;;;;4.35;2.97;;;22.80;85.90;;;;;;5076215;28;20020;-85
2022/04/26 10:42:01;;;;;;;4.25;2.22;;;22.90;86.60;;;;;;5057161;28;20528;-85
2022/04/26 10:44:38;;;;;;;3.85;2.70;;;23.20;89.30;;;;;;5066431;28;20024;-85
2022/04/26 10:47:04;;;;;;;4.63;2.83;;;22.90;85.00;;;;;;5071080;28;20056;-85
2022/04/26 10:49:32;;;;;;;3.42;2.45;;;23.10;86.50;;;;;;5077591;28;20122;-84
2022/04/26 10:52:19;;;;;;;2.75;2.33;;;23.10;86.70;;;;;;5066896;28;20020;-85
2022/04/26 10:57:27;;;;;;;1.95;1.83;;;23.10;87.30;;;;;;5070300;28;20048;-85
2022/04/26 11:00:00;;;;;;;2.72;2.10;;;23.10;85.10;;;;;;5053534;28;20032;-84
2022/04/26 11:02:31;;;;;;;3.50;2.00;;;22.60;84.90;;;;;;5056896;28;20113;-84
2022/04/26 11:05:01;;;;;;;3.45;2.72;;;22.90;86.70;;;;;;5071587;28;20052;-84
2022/04/26 11:07:29;;;;;;;4.22;2.33;;;22.50;85.70;;;;;;5059047;28;20029;-84
2022/04/26 11:09:57;;;;;;;2.22;2.00;;;22.50;84.00;;;;;;5062734;28;20137;-84
2022/04/26 11:12:27;;;;;;;3.20;2.40;;;22.10;85.20;;;;;;5075719;28;20032;-84
2022/04/26 11:14:55;;;;;;;2.63;2.42;;;22.20;84.10;;;;;;5072360;28;20031;-84
2022/04/26 11:17:22;;;;;;;2.67;2.40;;;22.40;87.90;;;;;;5088424;28;20082;-84
2022/04/26 11:20:12;;;;;;;3.13;2.00;;;22.40;85.70;;;;;;5068520;28;20021;-84
2022/04/26 11:22:55;;;;;;;2.63;2.28;;;22.20;84.60;;;;;;5079387;28;20123;-84
2022/04/26 11:28:09;;;;;;;2.35;1.85;;;22.40;83.20;;;;;;5077866;28;20124;-84
2022/04/26 11:30:44;;;;;;;2.67;2.22;;;22.30;83.10;;;;;;5070667;28;20020;-85
2022/04/26 11:33:23;;;;;;;4.45;2.20;;;22.10;81.60;;;;;;5068331;28;20041;-84
2022/04/26 11:35:58;;;;;;;2.65;2.10;;;22.20;82.90;;;;;;5069143;28;20085;-84
2022/04/26 11:38:25;;;;;;;3.30;2.10;;;21.90;82.70;;;;;;5064343;28;20044;-84
2022/04/26 11:40:54;;;;;;;2.35;1.90;;;21.80;84.00;;;;;;5066169;28;20037;-84
2022/04/26 11:43:28;;;;;;;2.42;1.85;;;22.20;83.10;;;;;;5069514;28;20028;-84
2022/04/26 11:45:56;;;;;;;2.15;1.55;;;22.40;82.40;;;;;;5078929;28;20023;-83
2022/04/26 11:48:24;;;;;;;2.30;1.92;;;22.70;84.30;;;;;;5062911;28;20028;-84
2022/04/26 11:50:52;;;;;;;2.95;2.00;;;22.30;82.00;;;;;;5075279;28;20101;-85
2022/04/26 11:53:26;;;;;;;2.03;1.83;;;22.00;84.60;;;;;;5071022;28;20025;-84
2022/04/26 11:55:52;;;;;;;3.00;2.45;;;22.20;83.70;;;;;;5062687;28;20065;-84
2022/04/26 11:58:19;;;;;;;3.10;1.85;;;22.10;83.00;;;;;;5073069;28;20124;-84
2022/04/26 12:00:52;;;;;;;2.63;1.83;;;22.40;84.30;;;;;;5068577;28;20024;-84
2022/04/26 12:03:19;;;;;;;2.42;2.22;;;22.20;81.10;;;;;;5066509;28;20035;-86
2022/04/26 12:05:49;;;;;;;3.92;2.00;;;22.20;82.40;;;;;;5063574;28;20036;-85
2022/04/26 12:08:15;;;;;;;1.90;1.63;;;22.10;83.90;;;;;;5080041;28;20082;-84
2022/04/26 12:10:41;;;;;;;3.97;1.98;;;22.00;80.00;;;;;;5081339;28;20021;-83
2022/04/26 12:13:07;;;;;;;1.90;1.80;;;22.10;82.80;;;;;;5070381;28;20050;-83
2022/04/26 12:15:40;;;;;;;1.98;1.70;;;22.10;80.90;;;;;;5074270;28;20043;-83
2022/04/26 12:18:13;;;;;;;3.05;1.70;;;22.00;81.80;;;;;;5063273;28;20035;-85
2022/04/26 12:21:02;;;;;;;1.70;1.60;;;22.10;82.80;;;;;;5062319;28;20029;-83
2022/04/26 12:23:31;;;;;;;2.00;1.70;;;22.20;80.20;;;;;;5077209;28;20107;-84
2022/04/26 12:26:04;;;;;;;2.40;1.85;;;22.20;81.60;;;;;;5079351;28;20029;-84
2022/04/26 12:28:30;;;;;;;1.92;1.75;;;22.20;82.10;;;;;;5080988;28;20038;-84
2022/04/26 12:30:56;;;;;;;2.53;1.70;;;22.00;81.10;;;;;;5061660;28;20025;-84
2022/04/26 12:33:32;;;;;;;2.90;1.80;;;22.00;81.30;;;;;;5059052;28;20553;-83
2022/04/26 12:36:03;;;;;;;1.90;1.73;;;22.10;82.30;;;;;;5065614;28;20017;-84
2022/04/26 12:38:29;;;;;;;2.35;1.90;;;22.00;82.50;;;;;;5059391;28;20494;-85
2022/04/26 12:41:07;;;;;;;1.98;1.75;;;22.00;81.30;;;;;;5075628;28;20040;-86
2022/04/26 12:43:33;;;;;;;1.77;1.55;;;22.10;80.20;;;;;;5077553;28;20039;-84
2022/04/26 12:46:02;;;;;;;1.35;1.30;;;22.20;80.20;;;;;;5079401;28;20016;-84
2022/04/26 12:51:25;;;;;;;1.60;1.42;;;22.10;82.50;;;;;;5062075;28;20059;-83
2022/04/26 12:53:52;;;;;;;2.47;1.75;;;22.10;84.00;;;;;;5085124;28;20024;-84
2022/04/26 12:56:20;;;;;;;2.50;2.13;;;22.20;86.00;;;;;;5077992;28;20040;-84
2022/04/26 12:58:47;;;;;;;1.80;1.70;;;22.40;82.50;;;;;;5078435;28;20035;-84
2022/04/26 13:01:14;;;;;;;1.95;1.38;;;22.20;83.80;;;;;;5072267;28;20033;-83
2022/04/26 13:03:41;;;;;;;2.53;1.80;;;22.30;83.00;;;;;;5071644;28;20036;-84
2022/04/26 13:06:13;;;;;;;1.58;1.40;;;22.20;85.90;;;;;;5072317;28;20051;-84
2022/04/26 13:08:41;;;;;;;1.65;1.55;;;22.20;83.20;;;;;;5080094;28;20035;-84
2022/04/26 13:11:07;;;;;;;2.40;1.75;;;21.90;82.30;;;;;;5086929;28;20020;-83
2022/04/26 13:13:35;;;;;;;3.58;2.38;;;21.70;81.00;;;;;;5077216;28;20060;-84
2022/04/26 13:16:01;;;;;;;2.67;1.73;;;21.90;79.60;;;;;;5080043;28;20028;-84
2022/04/26 13:18:28;;;;;;;1.65;1.55;;;22.00;79.90;;;;;;5076644;28;20036;-83
2022/04/26 13:20:56;;;;;;;1.52;1.40;;;22.10;79.80;;;;;;5062825;28;20020;-83
2022/04/26 13:23:22;;;;;;;3.10;2.20;;;22.20;79.90;;;;;;5065896;28;20081;-84
2022/04/26 13:25:48;;;;;;;2.72;1.45;;;22.30;80.30;;;;;;5082730;28;20110;-83
2022/04/26 13:28:14;;;;;;;1.52;1.42;;;22.30;81.00;;;;;;5063761;28;20563;-83
2022/04/26 13:30:41;;;;;;;2.88;1.88;;;22.20;80.00;;;;;;5070666;28;20021;-83
2022/04/26 13:33:07;;;;;;;1.67;1.48;;;22.00;79.40;;;;;;5071332;28;20016;-83
2022/04/26 13:35:33;;;;;;;1.50;1.40;;;21.80;78.20;;;;;;5085530;28;20027;-83
2022/04/26 13:38:01;;;;;;;3.08;1.30;;;21.90;78.60;;;;;;5077105;28;20027;-83
2022/04/26 13:40:27;;;;;;;2.15;1.50;;;22.10;78.10;;;;;;5077551;28;20039;-83
2022/04/26 13:42:53;;;;;;;1.48;1.38;;;22.10;79.10;;;;;;5069237;28;20024;-83
2022/04/26 13:45:20;;;;;;;1.75;1.65;;;21.90;79.30;;;;;;5075442;28;20030;-83
2022/04/26 13:47:46;;;;;;;2.97;1.60;;;21.80;79.10;;;;;;5060375;28;20107;-83
2022/04/26 13:50:12;;;;;;;2.30;1.67;;;21.90;79.00;;;;;;5079023;28;20769;-83
2022/04/26 13:52:40;;;;;;;2.25;1.60;;;21.90;78.40;;;;;;5064843;28;20111;-83
2022/04/26 13:55:07;;;;;;;1.85;1.40;;;22.10;80.20;;;;;;5072038;28;20051;-83
2022/04/26 13:57:33;;;;;;;2.83;1.25;;;22.20;78.70;;;;;;5076044;28;20040;-82
2022/04/26 14:00:02;;;;;;;2.28;1.52;;;22.20;78.20;;;;;;5073801;28;20075;-84
2022/04/26 14:02:29;;;;;;;6.38;1.63;;;22.50;77.80;;;;;;5071219;28;20091;-82
2022/04/26 14:04:54;;;;;;;2.50;1.58;;;22.20;77.80;;;;;;5064654;28;20020;-82
2022/04/26 14:07:20;;;;;;;1.70;1.60;;;22.40;77.00;;;;;;5069643;28;20554;-83
2022/04/26 14:09:46;;;;;;;3.67;1.60;;;22.40;75.00;;;;;;5081361;28;20502;-83
2022/04/26 14:12:14;;;;;;;4.95;1.98;;;22.30;77.20;;;;;;5061083;28;20378;-83
2022/04/26 14:22:54;;;;;;;1.48;1.38;;;22.10;76.70;;;;;;5077143;28;20533;-82
2022/04/26 14:25:20;;;;;;;1.52;1.42;;;22.20;78.00;;;;;;5075675;28;20025;-82
2022/04/26 14:27:47;;;;;;;1.70;1.60;;;22.40;77.00;;;;;;5068242;28;20090;-82
2022/04/26 14:30:13;;;;;;;1.50;1.40;;;22.40;77.30;;;;;;5062056;28;20086;-83
2022/04/26 14:32:39;;;;;;;1.45;1.35;;;22.20;76.00;;;;;;5056030;28;20017;-82
2022/04/26 14:35:06;;;;;;;3.83;1.83;;;22.30;77.70;;;;;;5078577;28;20549;-82
2022/04/26 14:37:33;;;;;;;1.75;1.30;;;22.40;76.80;;;;;;5072327;28;20074;-83
2022/04/26 14:39:59;;;;;;;3.47;1.52;;;22.30;75.20;;;;;;5067225;28;20038;-82
2022/04/26 14:42:28;;;;;;;1.52;1.38;;;22.10;75.00;;;;;;5077837;28;20023;-82
2022/04/26 14:44:54;;;;;;;1.45;1.27;;;22.00;76.10;;;;;;5072435;28;20024;-82
2022/04/26 14:47:20;;;;;;;1.85;1.48;;;22.20;76.10;;;;;;5066907;28;20040;-82
2022/04/26 14:49:46;;;;;;;1.58;1.48;;;22.40;75.20;;;;;;5085708;28;20497;-82
2022/04/26 14:52:21;;;;;;;2.30;1.45;;;22.40;73.70;;;;;;5083811;28;20755;-82
2022/04/26 14:54:50;;;;;;;1.58;1.00;;;22.20;73.60;;;;;;5079148;28;20043;-82
2022/04/26 14:57:19;;;;;;;1.20;1.10;;;22.30;72.60;;;;;;5061990;28;20033;-82
2022/04/26 14:59:48;;;;;;;2.88;1.55;;;22.30;74.20;;;;;;5091279;28;20057;-82
2022/04/26 15:02:18;;;;;;;2.10;1.13;;;22.20;72.70;;;;;;5076130;28;20272;-82
2022/04/26 15:04:48;;;;;;;1.35;1.10;;;22.20;71.20;;;;;;5082931;28;20032;-82
2022/04/26 15:07:14;;;;;;;3.20;1.45;;;22.10;73.80;;;;;;5080923;28;20036;-82
2022/04/26 15:09:43;;;;;;;2.80;1.00;;;22.40;72.50;;;;;;5071516;28;20085;-82
2022/04/26 15:17:48;;;;;;;1.35;1.20;;;22.20;72.40;;;;;;5079627;28;20167;-83
2022/04/26 15:20:15;;;;;;;1.33;1.23;;;22.30;73.00;;;;;;5071787;28;20028;-82
2022/04/26 15:22:41;;;;;;;1.60;1.10;;;22.40;74.20;;;;;;5079479;28;20028;-82
2022/04/26 15:25:09;;;;;;;0.82;0.80;;;22.50;71.30;;;;;;5086109;28;20020;-82
2022/04/26 15:27:37;;;;;;;0.85;0.77;;;22.30;72.50;;;;;;5068498;28;20028;-82
2022/04/26 15:30:05;;;;;;;1.63;1.20;;;22.20;72.10;;;;;;5055407;28;20021;-82
2022/04/26 15:32:31;;;;;;;1.38;1.00;;;22.20;70.90;;;;;;5057402;28;20032;-81
2022/04/26 15:34:57;;;;;;;0.80;0.80;;;22.10;70.10;;;;;;5078009;28;20024;-81
2022/04/26 15:37:25;;;;;;;1.52;1.10;;;22.10;72.30;;;;;;5083905;28;20501;-82
2022/04/26 15:39:52;;;;;;;1.92;1.38;;;22.20;72.90;;;;;;5079056;28;20107;-82
2022/04/26 15:42:18;;;;;;;1.92;0.90;;;22.10;71.90;;;;;;5076148;28;20028;-82
2022/04/26 15:44:45;;;;;;;1.30;0.95;;;22.00;71.90;;;;;;5062634;28;20135;-82
2022/04/26 15:47:11;;;;;;;1.67;0.80;;;22.10;71.20;;;;;;5083348;28;20136;-82
2022/04/26 15:49:37;;;;;;;1.30;1.20;;;22.20;71.20;;;;;;5082603;28;20508;-81
2022/04/26 15:52:03;;;;;;;2.33;0.90;;;22.00;72.70;;;;;;5077084;28;20025;-81
2022/04/26 15:54:29;;;;;;;1.70;0.95;;;22.00;73.20;;;;;;5076152;28;20091;-82
2022/04/26 15:56:55;;;;;;;1.05;1.05;;;22.10;73.50;;;;;;5070431;28;20043;-81
2022/04/26 15:59:21;;;;;;;1.02;1.00;;;22.00;74.60;;;;;;5068748;28;20025;-81
2022/04/26 16:01:46;;;;;;;1.08;0.80;;;21.90;72.60;;;;;;5068702;28;20035;-81
2022/04/26 16:04:12;;;;;;;1.45;1.05;;;21.80;73.20;;;;;;5075325;28;20391;-82
2022/04/26 16:06:40;;;;;;;1.55;1.10;;;22.00;73.40;;;;;;5067394;28;20501;-81
2022/04/26 16:22:49;;;;;;;2.35;1.23;;;21.90;73.70;;;;;;5064785;28;20090;-81
2022/04/26 16:25:15;;;;;;;1.38;0.90;;;21.80;72.10;;;;;;5073143;28;20028;-81
2022/04/26 16:27:42;;;;;;;0.93;0.77;;;21.80;71.80;;;;;;5076788;28;20123;-81
2022/04/26 16:30:09;;;;;;;1.55;1.02;;;21.80;74.40;;;;;;5059430;28;20013;-81
2022/04/26 16:32:35;;;;;;;2.25;1.00;;;21.70;73.20;;;;;;5060560;28;20021;-81
2022/04/26 16:35:01;;;;;;;2.25;1.00;;;21.70;72.90;;;;;;5075233;28;20032;-81
2022/04/26 16:37:27;;;;;;;1.63;1.02;;;21.90;72.90;;;;;;5078437;28;20077;-82
2022/04/26 16:39:52;;;;;;;1.08;0.90;;;21.80;72.10;;;;;;5067828;28;20025;-81
2022/04/26 16:42:18;;;;;;;0.95;0.82;;;21.90;73.40;;;;;;5074983;28;20497;-81
2022/04/26 16:44:44;;;;;;;0.70;0.70;;;21.80;71.90;;;;;;5076573;28;20102;-81
2022/04/26 16:47:10;;;;;;;1.02;0.95;;;21.80;71.50;;;;;;5062243;28;20116;-81
2022/04/26 16:49:36;;;;;;;0.65;0.65;;;21.80;72.50;;;;;;5077932;28;20536;-81
2022/04/26 16:52:04;;;;;;;3.30;1.13;;;21.80;72.70;;;;;;5074829;28;20047;-81
2022/04/26 16:54:30;;;;;;;2.88;0.90;;;21.70;71.60;;;;;;5057100;28;20047;-82
2022/04/26 16:56:56;;;;;;;1.63;1.13;;;21.60;70.80;;;;;;5070070;28;20098;-81
2022/04/26 16:59:23;;;;;;;1.25;0.85;;;21.70;69.00;;;;;;5070488;28;20498;-82
2022/04/26 17:01:49;;;;;;;1.42;0.90;;;21.80;69.10;;;;;;5066005;28;20059;-82
2022/04/26 17:04:15;;;;;;;1.52;1.20;;;21.70;68.00;;;;;;5058193;28;20061;-82
2022/04/26 17:06:41;;;;;;;2.08;1.05;;;21.60;69.30;;;;;;5068278;28;20133;-82
2022/04/26 17:09:07;;;;;;;1.20;1.02;;;21.60;68.30;;;;;;5064483;28;20055;-82
2022/04/26 17:11:43;;;;;;;1.27;1.00;;;21.60;67.30;;;;;;5060543;28;20491;-82
2022/04/26 17:14:18;;;;;;;0.90;0.90;;;21.50;68.90;;;;;;5063967;28;20297;-81
2022/04/26 17:16:46;;;;;;;0.95;0.85;;;21.50;68.50;;;;;;5074213;28;20034;-81